createdAt,value
2022-10-24T03:57:51.750Z,100620.63
2022-10-24T04:00:57.072Z,100620.63
2022-10-24T04:03:59.619Z,100625.03
2022-10-24T04:07:02.019Z,100631.16
2022-10-24T04:10:05.934Z,100636.38
2022-10-24T04:13:08.243Z,100639.00
2022-10-24T04:16:10.786Z,100639.03
2022-10-24T04:19:12.862Z,100642.47
2022-10-24T04:22:15.235Z,100649.44
2022-10-24T04:25:17.766Z,100643.31
2022-10-24T04:28:20.058Z,100641.53
2022-10-24T04:31:23.634Z,100631.91
2022-10-24T04:34:26.225Z,100634.53
2022-10-24T04:37:28.305Z,100632.81
2022-10-24T04:40:30.594Z,100635.44
2022-10-24T04:43:32.689Z,100631.03
2022-10-24T04:46:34.981Z,100623.16
2022-10-24T04:49:37.005Z,100623.19
2022-10-24T04:52:39.550Z,100616.19
2022-10-24T04:55:41.615Z,100609.09
2022-10-24T04:58:44.148Z,100615.25
2022-10-24T05:01:46.333Z,100608.31
2022-10-24T05:04:48.704Z,100601.34
2022-10-24T05:07:50.745Z,100600.50
2022-10-24T05:10:53.048Z,100603.06
2022-10-24T05:13:55.077Z,100609.22
2022-10-24T05:16:57.353Z,100612.75
2022-10-24T05:19:59.425Z,100614.44
2022-10-24T05:23:01.709Z,100640.69
2022-10-24T05:26:03.903Z,100647.72
2022-10-24T05:32:13.258Z,100649.56
2022-10-24T05:35:15.661Z,100642.53
2022-10-24T05:38:18.278Z,100646.97
2022-10-24T05:41:20.672Z,100648.62
2022-10-24T05:44:22.925Z,100655.69
2022-10-24T05:47:28.391Z,100649.53
2022-10-24T05:50:31.505Z,100657.47
2022-10-24T05:53:33.870Z,100662.75
2022-10-24T05:56:35.903Z,100676.72
2022-10-24T05:59:38.205Z,100679.28
2022-10-24T06:02:40.712Z,100672.28
2022-10-24T06:05:43.238Z,100689.81
2022-10-24T06:08:45.303Z,100685.44
2022-10-24T06:11:47.950Z,100695.03
2022-10-24T06:14:50.194Z,100691.47
2022-10-24T06:17:53.252Z,100689.69
2022-10-24T06:20:58.967Z,100682.84
2022-10-24T06:24:01.318Z,100685.50
2022-10-24T06:27:04.879Z,100676.72
2022-10-24T06:30:08.079Z,100681.97
2022-10-24T06:33:10.266Z,100681.94
2022-10-24T06:36:14.296Z,100681.00
2022-10-24T06:39:16.362Z,100675.72
2022-10-24T06:42:18.662Z,100676.69
2022-10-24T06:45:21.835Z,100673.25
2022-10-24T06:48:24.299Z,100666.19
2022-10-24T06:51:26.370Z,100667.00
2022-10-24T06:54:30.347Z,100667.94
2022-10-24T06:57:32.770Z,100654.72
2022-10-24T07:00:35.576Z,100656.44
2022-10-24T07:03:37.926Z,100665.22
2022-10-24T07:06:40.666Z,100662.66
2022-10-24T07:09:43.349Z,100660.97
2022-10-24T07:12:45.998Z,100655.69
2022-10-24T07:15:48.450Z,100654.81
2022-10-24T07:18:51.072Z,100678.47
2022-10-24T07:21:53.125Z,100688.13
2022-10-24T07:24:56.117Z,100693.41
2022-10-24T07:27:58.178Z,100697.81
2022-10-24T07:31:01.657Z,100704.00
2022-10-24T07:34:06.705Z,100711.00
2022-10-24T07:37:09.091Z,100695.22
2022-10-24T07:40:11.695Z,100711.84
2022-10-24T07:43:14.770Z,100710.06
2022-10-24T07:46:18.200Z,100699.56
2022-10-24T07:49:20.512Z,100698.72
2022-10-24T07:52:22.643Z,100701.34
2022-10-24T07:55:24.951Z,100710.09
2022-10-24T07:58:27.808Z,100710.00
2022-10-24T08:01:30.313Z,100722.28
2022-10-24T08:04:32.692Z,100718.75
2022-10-24T08:07:36.278Z,100719.59
2022-10-24T08:10:38.669Z,100717.00
2022-10-24T08:13:40.985Z,100716.09
2022-10-24T08:16:43.342Z,100714.38
2022-10-24T08:19:48.171Z,100712.59
2022-10-24T08:22:50.483Z,100705.59
2022-10-24T08:25:53.454Z,100698.59
2022-10-24T08:28:57.705Z,100699.53
2022-10-24T08:32:00.308Z,100701.28
2022-10-24T08:35:02.691Z,100702.97
2022-10-24T08:38:04.740Z,100688.09
2022-10-24T08:41:09.845Z,100688.13
2022-10-24T08:44:29.262Z,100684.63
2022-10-24T08:47:44.683Z,100682.94
2022-10-24T08:50:51.384Z,100678.59
2022-10-24T08:53:58.342Z,100666.38
2022-10-24T08:57:02.066Z,100662.88
2022-10-24T09:00:22.251Z,100651.47
2022-10-24T09:03:57.514Z,100654.13
2022-10-24T09:07:01.500Z,100648.78
2022-10-24T09:10:41.037Z,100661.09
2022-10-24T09:13:43.331Z,100660.16
2022-10-24T09:16:50.225Z,100668.13
2022-10-24T09:19:57.465Z,100657.63
2022-10-24T09:23:01.870Z,100665.50
2022-10-24T09:26:13.805Z,100668.13
2022-10-24T09:29:15.977Z,100667.25
2022-10-24T09:32:24.338Z,100668.13
2022-10-24T09:35:29.979Z,100664.69
2022-10-24T09:38:35.342Z,100676.97
2022-10-24T09:41:37.492Z,100679.59
2022-10-24T09:44:44.005Z,100681.28
2022-10-24T09:47:46.787Z,100691.00
2022-10-24T09:50:51.489Z,100699.72
2022-10-24T09:54:01.431Z,100701.47
2022-10-24T09:57:11.857Z,100702.41
2022-10-24T10:00:23.868Z,100697.13
2022-10-24T10:03:26.745Z,100681.34
2022-10-24T10:06:28.811Z,100688.34
2022-10-24T10:09:31.706Z,100685.75
2022-10-24T10:12:36.981Z,100684.00
2022-10-24T10:15:46.692Z,100680.50
2022-10-24T10:18:48.898Z,100682.25
2022-10-24T10:22:00.508Z,100679.59
2022-10-24T10:25:02.704Z,100670.84
2022-10-24T10:28:19.494Z,100669.06
2022-10-24T10:31:40.956Z,100662.06
2022-10-24T10:34:48.634Z,100669.97
2022-10-24T10:38:11.838Z,100664.72
2022-10-24T10:41:41.195Z,100667.34
2022-10-24T10:44:57.062Z,100674.34
2022-10-24T10:48:32.855Z,100668.22
2022-10-24T10:51:38.326Z,100659.44
2022-10-24T10:55:07.918Z,100647.16
2022-10-24T10:58:13.306Z,100642.78
2022-10-24T11:01:31.531Z,100641.03
2022-10-24T11:04:38.966Z,100642.78
2022-10-24T11:07:46.276Z,100634.00
2022-10-24T11:11:03.269Z,100638.38
2022-10-24T11:14:35.584Z,100647.19
2022-10-24T11:17:53.338Z,100648.03
2022-10-24T11:21:05.852Z,100631.38
2022-10-24T11:24:22.119Z,100629.59
2022-10-24T11:27:31.673Z,100633.97
2022-10-24T11:30:48.840Z,100646.28
2022-10-24T11:34:12.423Z,100645.41
2022-10-24T11:37:34.244Z,100634.00
2022-10-24T11:40:39.978Z,100626.97
2022-10-24T11:43:46.709Z,100626.09
2022-10-24T11:46:56.191Z,100633.97
2022-10-24T11:50:31.212Z,100620.81
2022-10-24T11:53:33.839Z,100624.34
2022-10-24T11:56:45.829Z,100615.53
2022-10-24T11:59:52.078Z,100612.94
2022-10-24T12:03:23.389Z,100617.31
2022-10-24T12:06:42.248Z,100604.09
2022-10-24T12:10:11.581Z,100610.22
2022-10-24T12:13:35.214Z,100619.94
2022-10-24T12:17:19.320Z,100612.06
2022-10-24T12:20:24.626Z,100605.91
2022-10-24T12:23:31.679Z,100602.38
2022-10-24T12:26:35.614Z,100609.44
2022-10-24T12:29:38.784Z,100595.38
2022-10-24T12:32:46.115Z,100582.13
2022-10-24T12:35:52.724Z,100585.63
2022-10-24T12:38:55.035Z,100590.91
2022-10-24T12:41:58.823Z,100597.03
2022-10-24T12:45:01.059Z,100590.91
2022-10-24T12:48:03.141Z,100590.06
2022-10-24T12:51:31.475Z,100590.06
2022-10-24T12:54:45.021Z,100583.03
2022-10-24T12:57:47.731Z,100576.88
2022-10-24T13:00:57.267Z,100568.94
2022-10-24T13:04:36.866Z,100559.28
2022-10-24T13:08:16.110Z,100550.53
2022-10-24T13:11:52.251Z,100550.47
2022-10-24T13:15:15.049Z,100560.13
2022-10-24T13:18:38.858Z,100563.69
2022-10-24T13:22:02.333Z,100561.00
2022-10-24T13:25:36.949Z,100551.38
2022-10-24T13:28:40.432Z,100533.81
2022-10-24T13:31:46.218Z,100532.94
2022-10-24T13:34:54.534Z,100535.50
2022-10-24T13:38:00.598Z,100539.06
2022-10-24T13:41:05.136Z,100549.63
2022-10-24T13:44:28.893Z,100547.88
2022-10-24T13:47:36.181Z,100542.59
2022-10-24T13:50:56.429Z,100537.34
2022-10-24T13:54:08.105Z,100545.25
2022-10-24T13:57:37.421Z,100550.56
2022-10-24T14:00:43.382Z,100552.31
2022-10-24T14:03:48.033Z,100540.88
2022-10-24T14:06:50.534Z,100542.69
2022-10-24T14:09:58.596Z,100537.38
2022-10-24T14:13:01.137Z,100543.53
2022-10-24T14:16:07.275Z,100544.44
2022-10-24T14:19:16.650Z,100536.56
2022-10-24T14:22:25.046Z,100525.13
2022-10-24T14:25:36.047Z,100528.63
2022-10-24T14:28:50.589Z,100530.34
2022-10-24T14:32:04.861Z,100535.66
2022-10-24T14:35:12.126Z,100529.50
2022-10-24T14:38:17.377Z,100534.78
2022-10-24T14:41:29.970Z,100540.94
2022-10-24T14:44:33.106Z,100531.25
2022-10-24T14:47:38.967Z,100531.25
2022-10-24T14:50:44.749Z,100530.38
2022-10-24T14:53:50.059Z,100530.38
2022-10-24T14:56:54.276Z,100527.75
2022-10-24T14:59:58.920Z,100525.13
2022-10-24T15:03:02.268Z,100523.34
2022-10-24T15:06:10.223Z,100535.66
2022-10-24T15:09:12.390Z,100526.88
2022-10-24T15:12:14.678Z,100539.19
2022-10-24T15:15:23.378Z,100533.91
2022-10-24T15:18:43.528Z,100535.69
2022-10-24T15:21:46.709Z,100533.06
2022-10-24T15:24:52.164Z,100535.72
2022-10-24T15:27:59.417Z,100539.19
2022-10-24T15:31:01.830Z,100525.13
2022-10-24T15:34:05.363Z,100513.72
2022-10-24T15:37:18.063Z,100511.97
2022-10-24T15:40:27.323Z,100517.25
